createdAt,value
2022-11-14T00:00:15.375Z,91.58
2022-11-14T00:03:19.384Z,91.61
2022-11-14T00:06:23.645Z,91.49
2022-11-14T00:09:29.238Z,91.60
2022-11-14T00:12:34.225Z,91.74
2022-11-14T00:15:38.256Z,92.10
2022-11-14T00:18:42.668Z,91.59
2022-11-14T00:21:47.629Z,91.49
2022-11-14T00:24:51.831Z,91.33
2022-11-14T00:27:58.155Z,91.29
2022-11-14T00:31:02.516Z,91.43
2022-11-14T00:34:06.818Z,91.34
2022-11-14T00:37:11.052Z,91.12
2022-11-14T00:40:15.595Z,91.41
2022-11-14T00:43:20.110Z,91.15
2022-11-14T00:46:24.365Z,91.57
2022-11-14T00:49:28.608Z,91.27
2022-11-14T00:52:32.703Z,91.28
2022-11-14T00:55:37.047Z,91.20
2022-11-14T00:58:41.460Z,91.33
2022-11-14T01:01:45.649Z,91.17
2022-11-14T01:04:50.003Z,91.05
2022-11-14T01:07:54.625Z,90.96
2022-11-14T01:11:00.444Z,91.25
2022-11-14T01:14:08.465Z,90.91
2022-11-14T01:17:13.361Z,91.21
2022-11-14T01:20:17.793Z,91.21
2022-11-14T01:23:22.501Z,91.00
2022-11-14T01:26:26.461Z,90.80
2022-11-14T01:29:31.038Z,90.97
2022-11-14T01:32:35.549Z,90.78
2022-11-14T01:35:40.038Z,90.82
2022-11-14T01:38:44.234Z,90.74
2022-11-14T01:41:48.458Z,90.94
2022-11-14T01:44:53.460Z,90.30
2022-11-14T01:47:57.995Z,90.83
2022-11-14T01:51:28.475Z,90.50
2022-11-14T01:54:41.177Z,90.51
2022-11-14T01:57:48.106Z,90.14
2022-11-14T02:00:52.165Z,89.92
2022-11-14T02:03:58.004Z,89.78
2022-11-14T02:07:04.837Z,89.92
2022-11-14T02:10:16.512Z,89.88
2022-11-14T02:13:20.461Z,89.85
2022-11-14T02:16:26.545Z,89.97
2022-11-14T02:20:05.623Z,90.07
2022-11-14T02:23:11.916Z,89.81
2022-11-14T02:26:21.615Z,90.25
2022-11-14T02:29:25.936Z,89.68
2022-11-14T02:32:32.675Z,89.85
2022-11-14T02:35:49.363Z,90.22
2022-11-14T02:38:53.228Z,90.17
2022-11-14T02:41:57.432Z,89.98
2022-11-14T02:45:01.901Z,90.33
2022-11-14T02:48:06.477Z,89.98
2022-11-14T02:51:10.574Z,90.86
2022-11-14T02:54:14.926Z,91.14
2022-11-14T02:57:19.254Z,90.93
2022-11-14T03:00:23.523Z,91.54
2022-11-14T03:03:28.053Z,91.58
2022-11-14T03:06:32.439Z,91.75
2022-11-14T03:09:37.094Z,91.63
2022-11-14T03:12:41.197Z,92.02
2022-11-14T03:15:45.862Z,91.76
2022-11-14T03:18:50.439Z,91.85
2022-11-14T03:21:54.724Z,91.67
2022-11-14T03:24:59.194Z,91.84
2022-11-14T03:28:03.517Z,91.88
2022-11-14T03:31:10.620Z,91.80
2022-11-14T03:34:14.947Z,91.97
2022-11-14T03:37:19.299Z,91.67
2022-11-14T03:40:23.635Z,91.89
2022-11-14T03:43:32.848Z,92.06
2022-11-14T03:46:37.250Z,92.16
2022-11-14T03:49:41.812Z,91.82
2022-11-14T03:52:49.272Z,91.88
2022-11-14T03:55:53.642Z,92.02
2022-11-14T03:58:58.297Z,91.89
2022-11-14T04:02:02.522Z,91.76
2022-11-14T04:05:07.333Z,91.99
2022-11-14T04:08:11.331Z,91.91
2022-11-14T04:11:15.765Z,91.90
2022-11-14T04:14:20.235Z,91.84
2022-11-14T04:17:24.773Z,91.96
2022-11-14T04:20:29.460Z,91.94
2022-11-14T04:23:33.714Z,91.63
2022-11-14T04:26:38.034Z,91.72
2022-11-14T04:29:42.408Z,91.92
2022-11-14T04:32:48.498Z,91.77
2022-11-14T04:35:52.716Z,92.08
2022-11-14T04:38:56.915Z,91.89
2022-11-14T04:42:01.179Z,91.85
2022-11-14T04:45:06.123Z,91.82
2022-11-14T04:48:10.794Z,91.81
2022-11-14T04:51:15.082Z,91.71
2022-11-14T04:54:19.441Z,91.80
2022-11-14T04:57:23.554Z,92.04
2022-11-14T05:00:27.864Z,91.97
2022-11-14T05:03:32.245Z,91.83
2022-11-14T05:06:36.728Z,91.49
2022-11-14T05:09:40.978Z,91.71
2022-11-14T05:12:45.507Z,91.75
2022-11-14T05:15:49.520Z,91.56
2022-11-14T05:18:55.101Z,91.57
2022-11-14T05:21:59.796Z,91.96
2022-11-14T05:25:05.130Z,92.04
2022-11-14T05:28:09.240Z,91.43
2022-11-14T05:31:20.933Z,91.73
2022-11-14T05:34:25.544Z,91.67
2022-11-14T05:37:29.924Z,91.69
2022-11-14T05:40:33.994Z,91.78
2022-11-14T05:43:39.475Z,91.53
2022-11-14T05:46:43.770Z,91.51
2022-11-14T05:49:47.971Z,91.73
2022-11-14T05:52:52.099Z,91.51
2022-11-14T05:56:01.732Z,91.75
2022-11-14T05:59:05.820Z,91.59
2022-11-14T06:02:10.352Z,91.71
2022-11-14T06:05:14.575Z,91.63
2022-11-14T06:08:19.177Z,91.60
2022-11-14T06:11:23.450Z,91.70
2022-11-14T06:14:27.779Z,91.53
2022-11-14T06:17:32.048Z,91.46
2022-11-14T06:20:36.982Z,91.54
2022-11-14T06:23:41.809Z,91.50
2022-11-14T06:26:46.304Z,91.64
2022-11-14T06:29:50.184Z,91.25
2022-11-14T06:32:59.171Z,91.70
2022-11-14T06:36:04.709Z,91.63
2022-11-14T06:39:08.811Z,91.22
2022-11-14T06:42:13.219Z,91.27
2022-11-14T06:45:17.704Z,91.48
2022-11-14T06:48:22.074Z,91.32
2022-11-14T06:51:26.389Z,91.35
2022-11-14T06:54:30.497Z,91.27
2022-11-14T06:57:34.969Z,91.21
2022-11-14T07:00:39.411Z,91.21
2022-11-14T07:03:45.281Z,91.11
2022-11-14T07:06:49.704Z,91.33
2022-11-14T07:09:54.485Z,91.26
2022-11-14T07:12:58.636Z,91.16
2022-11-14T07:16:04.235Z,91.16
2022-11-14T07:19:11.217Z,91.21
2022-11-14T07:22:15.921Z,91.35
2022-11-14T07:25:22.749Z,91.45
2022-11-14T07:28:28.362Z,91.21
2022-11-14T07:31:32.605Z,91.12
2022-11-14T07:34:36.931Z,91.45
2022-11-14T07:37:41.122Z,91.60
2022-11-14T07:40:59.578Z,91.40
2022-11-14T07:44:04.662Z,91.39
2022-11-14T07:47:09.093Z,91.78
2022-11-14T07:50:19.122Z,91.42
2022-11-14T07:53:24.630Z,91.56
2022-11-14T07:56:29.858Z,91.50
2022-11-14T07:59:34.094Z,91.54
2022-11-14T08:02:38.461Z,91.39
2022-11-14T08:05:42.754Z,91.29
2022-11-14T08:08:47.074Z,91.31
2022-11-14T08:11:51.928Z,91.11
2022-11-14T08:14:56.361Z,91.31
2022-11-14T08:18:01.784Z,91.50
2022-11-14T08:21:06.633Z,91.57
2022-11-14T08:24:11.144Z,91.11
2022-11-14T08:27:15.541Z,91.49
2022-11-14T08:30:20.212Z,91.43
2022-11-14T08:33:24.397Z,91.27
2022-11-14T08:36:28.865Z,91.57
2022-11-14T08:39:33.264Z,91.12
2022-11-14T08:42:37.745Z,91.20
2022-11-14T08:45:41.940Z,91.09
2022-11-14T08:48:46.575Z,91.28
2022-11-14T08:51:52.605Z,91.13
2022-11-14T08:54:57.185Z,90.94
2022-11-14T08:58:01.433Z,91.02
2022-11-14T09:01:07.473Z,91.28
2022-11-14T09:04:12.185Z,91.17
2022-11-14T09:07:16.964Z,90.46
2022-11-14T09:10:21.730Z,90.69
2022-11-14T09:13:27.769Z,90.87
2022-11-14T09:16:33.717Z,90.50
2022-11-14T09:19:38.032Z,90.16
2022-11-14T09:22:42.605Z,90.29
2022-11-14T09:25:46.998Z,90.11
2022-11-14T09:28:51.386Z,89.94
2022-11-14T09:31:56.851Z,90.02
2022-11-14T09:35:01.135Z,89.84
2022-11-14T09:38:08.193Z,90.03
2022-11-14T09:41:25.994Z,89.63
2022-11-14T09:44:40.981Z,89.69
2022-11-14T09:47:48.446Z,89.58
2022-11-14T09:51:10.733Z,89.66
2022-11-14T09:54:23.236Z,89.79
2022-11-14T09:57:27.940Z,89.88
2022-11-14T10:01:17.181Z,89.12
2022-11-14T10:04:44.756Z,88.89
2022-11-14T10:08:01.292Z,88.65
2022-11-14T10:11:35.120Z,88.90
2022-11-14T10:15:02.956Z,88.47
2022-11-14T10:18:16.520Z,88.66
2022-11-14T10:21:29.961Z,89.15
2022-11-14T10:24:43.618Z,89.03
2022-11-14T10:28:05.488Z,88.45
2022-11-14T10:31:19.294Z,88.29
2022-11-14T10:34:32.775Z,88.99
2022-11-14T10:37:53.345Z,88.60
2022-11-14T10:41:02.275Z,88.41
2022-11-14T10:44:11.450Z,88.16
2022-11-14T10:47:21.492Z,88.21
2022-11-14T10:50:34.328Z,87.97
2022-11-14T10:53:44.496Z,88.53
2022-11-14T10:56:50.967Z,88.13
2022-11-14T10:59:55.696Z,88.87
2022-11-14T11:02:59.720Z,88.34
2022-11-14T11:06:04.066Z,88.09
2022-11-14T11:09:36.535Z,88.44
2022-11-14T11:12:47.080Z,87.59
2022-11-14T11:15:57.389Z,87.65
2022-11-14T11:19:22.540Z,87.84
2022-11-14T11:22:36.557Z,88.25
2022-11-14T11:25:40.751Z,87.76
2022-11-14T11:29:09.589Z,87.39
2022-11-14T11:32:26.130Z,87.79
2022-11-14T11:35:30.255Z,88.18
2022-11-14T11:38:34.928Z,87.57
2022-11-14T11:42:07.767Z,87.91
2022-11-14T11:45:13.232Z,87.39
2022-11-14T11:48:20.087Z,87.03
2022-11-14T11:51:27.087Z,87.09
2022-11-14T11:54:44.331Z,87.45
2022-11-14T11:57:57.951Z,86.88
2022-11-14T12:01:02.357Z,87.74
2022-11-14T12:04:06.630Z,87.07
2022-11-14T12:07:40.198Z,87.64
2022-11-14T12:10:46.705Z,86.89
2022-11-14T12:14:15.126Z,87.65
2022-11-14T12:17:22.195Z,87.58
2022-11-14T12:20:26.675Z,86.76
2022-11-14T12:23:39.893Z,87.41
2022-11-14T12:27:06.383Z,86.82
2022-11-14T12:30:18.088Z,87.03
2022-11-14T12:33:34.649Z,86.13
2022-11-14T12:36:42.967Z,86.33
2022-11-14T12:40:06.220Z,85.95
2022-11-14T12:43:36.324Z,86.24
2022-11-14T12:47:05.881Z,85.76
2022-11-14T12:50:42.593Z,86.14
2022-11-14T12:53:47.351Z,86.60
2022-11-14T12:57:01.291Z,86.46
2022-11-14T13:00:08.537Z,86.83
2022-11-14T13:03:46.962Z,86.20
2022-11-14T13:07:09.561Z,85.89
2022-11-14T13:10:15.617Z,85.99
2022-11-14T13:13:38.169Z,86.20
2022-11-14T13:17:00.841Z,85.75
2022-11-14T13:20:44.776Z,85.85
2022-11-14T13:23:49.021Z,85.75
2022-11-14T13:26:54.893Z,85.52
2022-11-14T13:30:00.314Z,85.60
2022-11-14T13:33:04.909Z,84.71
2022-11-14T13:36:39.571Z,85.22
2022-11-14T13:40:20.806Z,85.42
2022-11-14T13:43:47.690Z,85.55
2022-11-14T13:47:28.917Z,85.34
2022-11-14T13:50:36.938Z,85.07
2022-11-14T13:53:42.279Z,84.83
2022-11-14T13:56:59.340Z,84.91
2022-11-14T14:00:03.341Z,84.59
2022-11-14T14:03:24.213Z,85.15
2022-11-14T14:06:49.599Z,84.85
2022-11-14T14:10:14.673Z,84.55
2022-11-14T14:13:40.468Z,84.65
2022-11-14T14:16:56.847Z,84.85
2022-11-14T14:20:33.657Z,84.39
2022-11-14T14:24:04.706Z,84.71
2022-11-14T14:27:36.474Z,84.70
2022-11-14T14:30:40.602Z,84.29
2022-11-14T14:33:48.007Z,84.46
2022-11-14T14:36:54.683Z,84.60
2022-11-14T14:40:05.545Z,84.90
2022-11-14T14:43:23.891Z,84.73
2022-11-14T14:46:33.248Z,84.38
2022-11-14T14:49:39.154Z,84.67
2022-11-14T14:52:44.000Z,85.39
2022-11-14T14:55:55.684Z,85.06
2022-11-14T14:59:16.049Z,85.27
2022-11-14T15:02:23.575Z,85.23
2022-11-14T15:05:29.585Z,84.91
2022-11-14T15:08:38.883Z,84.81
2022-11-14T15:11:45.265Z,84.79
2022-11-14T15:14:49.489Z,84.70
2022-11-14T15:17:56.113Z,84.74
2022-11-14T15:21:24.473Z,85.73
2022-11-14T15:24:29.833Z,84.93
2022-11-14T15:27:34.283Z,85.13
2022-11-14T15:30:39.284Z,84.68
2022-11-14T15:33:43.467Z,85.65
2022-11-14T15:37:06.480Z,84.78
2022-11-14T15:40:20.279Z,85.01
2022-11-14T15:43:42.997Z,84.98
2022-11-14T15:46:48.255Z,84.82
2022-11-14T15:50:02.722Z,84.51
2022-11-14T15:53:23.083Z,85.03
2022-11-14T15:56:28.987Z,85.20
2022-11-14T15:59:33.080Z,85.07
2022-11-14T16:02:46.307Z,85.21
2022-11-14T16:05:50.559Z,85.48
2022-11-14T16:08:54.825Z,85.39
2022-11-14T16:11:59.192Z,85.72
2022-11-14T16:15:03.978Z,85.88
2022-11-14T16:18:08.592Z,85.79
2022-11-14T16:21:16.183Z,85.86
2022-11-14T16:24:23.527Z,85.99
2022-11-14T16:27:28.070Z,85.90
2022-11-14T16:30:32.534Z,85.91
2022-11-14T16:33:36.982Z,86.02
2022-11-14T16:36:41.394Z,86.05
2022-11-14T16:39:45.753Z,86.28
2022-11-14T16:42:50.400Z,86.43
2022-11-14T16:45:54.955Z,86.55
2022-11-14T16:48:59.697Z,86.53
2022-11-14T16:52:08.663Z,86.93
2022-11-14T16:55:14.178Z,87.04
2022-11-14T16:58:18.555Z,87.01
2022-11-14T17:01:23.188Z,87.04
2022-11-14T17:04:27.531Z,87.28
2022-11-14T17:07:33.478Z,86.95
2022-11-14T17:10:45.930Z,86.87
2022-11-14T17:13:50.593Z,87.37
2022-11-14T17:16:55.278Z,87.21
2022-11-14T17:20:00.129Z,87.42
2022-11-14T17:23:04.750Z,87.21
2022-11-14T17:26:12.362Z,87.50
2022-11-14T17:29:16.719Z,87.60
2022-11-14T17:32:21.084Z,87.55
2022-11-14T17:35:25.476Z,87.74
2022-11-14T17:38:35.502Z,87.84
2022-11-14T17:41:39.781Z,87.55
2022-11-14T17:44:44.247Z,88.02
2022-11-14T17:47:48.658Z,88.02
2022-11-14T17:50:53.607Z,88.01
2022-11-14T17:53:57.862Z,87.87
2022-11-14T17:57:01.675Z,88.26
2022-11-14T18:00:07.392Z,88.32
2022-11-14T18:03:11.565Z,87.78
2022-11-14T18:06:19.415Z,88.38
2022-11-14T18:09:23.810Z,87.66
2022-11-14T18:12:28.437Z,87.88
2022-11-14T18:15:32.915Z,88.34
2022-11-14T18:18:38.054Z,88.38
2022-11-14T18:21:43.340Z,88.24
2022-11-14T18:24:48.049Z,88.26
2022-11-14T18:27:52.552Z,88.32
2022-11-14T18:30:57.016Z,88.38
2022-11-14T18:34:02.825Z,87.97
2022-11-14T18:37:07.085Z,88.41
2022-11-14T18:40:16.458Z,88.31
2022-11-14T18:43:21.388Z,88.69
2022-11-14T18:46:26.777Z,88.38
2022-11-14T18:49:31.049Z,88.25
2022-11-14T18:52:35.245Z,88.30
2022-11-14T18:55:40.723Z,88.40
2022-11-14T18:58:45.520Z,88.79
2022-11-14T19:01:50.868Z,88.57
2022-11-14T19:04:55.381Z,88.72
2022-11-14T19:07:59.683Z,88.81
2022-11-14T19:11:07.130Z,88.47
2022-11-14T19:14:12.023Z,88.70
2022-11-14T19:17:20.936Z,88.40
2022-11-14T19:20:25.793Z,88.64
2022-11-14T19:23:30.550Z,89.01
2022-11-14T19:26:35.187Z,88.92
2022-11-14T19:29:40.032Z,88.84
2022-11-14T19:32:44.547Z,88.76
2022-11-14T19:35:48.873Z,88.98
2022-11-14T19:38:54.621Z,88.69
2022-11-14T19:41:58.673Z,88.98
2022-11-14T19:45:03.120Z,88.92
2022-11-14T19:48:07.335Z,89.08
2022-11-14T19:51:14.143Z,88.93
2022-11-14T19:54:18.668Z,88.92
2022-11-14T19:57:22.892Z,88.93
2022-11-14T20:00:29.395Z,89.14
2022-11-14T20:03:34.531Z,89.19
2022-11-14T20:06:39.227Z,89.19
2022-11-14T20:09:43.728Z,89.62
2022-11-14T20:12:48.190Z,89.75
2022-11-14T20:15:52.811Z,89.59
2022-11-14T20:19:58.934Z,89.62
2022-11-14T20:23:03.907Z,89.36
2022-11-14T20:26:11.338Z,89.56
2022-11-14T20:29:15.871Z,89.92
2022-11-14T20:32:20.273Z,89.82
2022-11-14T20:35:24.739Z,89.71
2022-11-14T20:38:31.099Z,89.84
2022-11-14T20:41:35.477Z,90.25
2022-11-14T20:44:39.613Z,90.07
2022-11-14T20:47:44.106Z,90.24
2022-11-14T20:50:48.271Z,89.66
2022-11-14T20:53:54.948Z,90.16
2022-11-14T20:56:59.243Z,90.27
2022-11-14T21:00:05.350Z,90.12
2022-11-14T21:03:10.476Z,90.20
2022-11-14T21:06:16.569Z,89.90
2022-11-14T21:09:21.497Z,90.13
2022-11-14T21:12:26.210Z,89.96
2022-11-14T21:15:34.089Z,90.43
2022-11-14T21:18:40.740Z,90.32
2022-11-14T21:21:47.901Z,90.25
2022-11-14T21:24:53.490Z,90.57
2022-11-14T21:27:58.603Z,90.37
2022-11-14T21:31:13.934Z,90.56
2022-11-14T21:34:18.619Z,90.74
2022-11-14T21:37:23.645Z,90.29
2022-11-14T21:40:28.161Z,90.80
2022-11-14T21:43:34.293Z,90.31
2022-11-14T21:46:38.791Z,90.69
2022-11-14T21:49:43.409Z,90.38
2022-11-14T21:52:47.897Z,90.78
2022-11-14T21:55:52.839Z,90.65
2022-11-14T21:59:13.674Z,90.26
2022-11-14T22:02:37.586Z,90.34
2022-11-14T22:05:42.108Z,90.43
2022-11-14T22:08:46.409Z,90.60
2022-11-14T22:11:50.593Z,91.03
2022-11-14T22:14:55.063Z,90.46
2022-11-14T22:17:59.533Z,90.60
2022-11-14T22:21:05.198Z,90.46
2022-11-14T22:24:10.063Z,90.65
2022-11-14T22:27:14.433Z,90.21
2022-11-14T22:30:18.704Z,91.04
2022-11-14T22:33:23.071Z,90.48
2022-11-14T22:36:28.005Z,90.86
2022-11-14T22:39:32.757Z,90.68
2022-11-14T22:42:37.213Z,90.53
2022-11-14T22:45:41.502Z,90.81
2022-11-14T22:48:48.186Z,90.70
2022-11-14T22:51:52.710Z,90.96
2022-11-14T22:54:57.229Z,91.09
2022-11-14T22:58:01.709Z,90.76
2022-11-14T23:01:19.822Z,90.84
2022-11-14T23:04:24.138Z,90.91
2022-11-14T23:07:28.591Z,90.54
2022-11-14T23:10:36.633Z,90.58
2022-11-14T23:13:43.852Z,90.96
2022-11-14T23:16:48.098Z,90.98
2022-11-14T23:19:52.379Z,91.10
2022-11-14T23:22:56.806Z,91.09
2022-11-14T23:26:06.343Z,91.43
2022-11-14T23:29:14.242Z,91.15
2022-11-14T23:32:18.242Z,90.91
2022-11-14T23:35:22.620Z,91.16
2022-11-14T23:38:27.557Z,90.93
2022-11-14T23:41:32.108Z,91.20
2022-11-14T23:44:36.278Z,90.96
2022-11-14T23:47:40.356Z,91.20
2022-11-14T23:50:45.419Z,90.82
2022-11-14T23:53:49.757Z,91.18
2022-11-14T23:56:54.057Z,91.17
2022-11-14T23:59:58.341Z,90.86
